Terminal Aerodrome Forecast
Issued by NWS

Home | Current Version | Previous Version | Text Only | Print | Product List | Glossary On
Versions: 1 2 3 4 5 6 7 8 9 10 11 12 13 14 15 16 17 18 19 20 21 22 23 24 25 26 27 28 29 30
000
FTUS45 KGJT 220528
TAFCNY
TAF
KCNY 220528Z 2206/2306 07005KT P6SM SCT120
     FM221200 13005KT P6SM SCT110
     FM221900 25007KT P6SM SCT110
     FM230200 35006KT P6SM FEW110=

USA.gov is the U.S. government's official web portal to all federal, state and local government web resources and services.